No particular awareness of the weather is required.    There are no Weather-warnings


Meteo18 Weather Cam more information Meteo18 Weather Cam


Thunder radar more information blitzortung!


Rain radar more information rain snow radar


Visit our other weather sites:

Template documentation
and downloads

And another site



Weather Underground History page Text

Daily Summary for April 28, 2016 Units:  Metric    English   Both
« Previous Day
Next Day »
Daily Weekly Monthly Yearly Custom
  High: Low: Average:
Temperature: 14.2 °C 1.4 °C 7.1 °C
Dew Point: 5.1 °C 0.0 °C 2.5 °C
Humidity: 96 % 43 % 75 %
Wind Speed: 6.4 km/h 0.0 km/h 0.5 km/h
Wind Gust: 11.3 km/h - -
Wind:- - ESE
Pressure: 1017.5 hPa 1013.8 hPa -
Precipitation: 0.3 mm    
Historical Graphs
 
 
Tabular Data for April 28, 2016
Time Temperature Dew Point Pressure Wind Wind Speed Wind Gust Humidity Rainfall Rate (Hourly)
00:02 1.6 °C 0.1 °C 1013.8 hPa Calm     90 % 0.0 mm
00:12 1.5 °C 0.0 °C 1014.1 hPa Calm     90 % 0.0 mm
00:17 1.4 °C 0.1 °C 1014.1 hPa Calm     91 % 0.0 mm
00:22 1.6 °C 0.3 °C 1014.1 hPa Calm     91 % 0.0 mm
00:27 1.5 °C 0.2 °C 1014.1 hPa Calm     91 % 0.0 mm
00:32 1.4 °C 0.2 °C 1014.1 hPa Calm     92 % 0.0 mm
00:37 1.6 °C 0.4 °C 1014.1 hPa Calm     92 % 0.0 mm
00:42 1.7 °C 0.5 °C 1014.1 hPa Calm     92 % 0.0 mm
00:57 1.4 °C 0.1 °C 1014.1 hPa Calm   1.6 km/h 91 % 0.0 mm
01:02 1.4 °C 0.2 °C 1014.1 hPa Calm   1.6 km/h 92 % 0.0 mm
01:07 1.4 °C 0.2 °C 1014.1 hPa Calm   1.6 km/h 92 % 0.0 mm
01:12 1.4 °C 0.2 °C 1014.1 hPa Calm   1.6 km/h 92 % 0.0 mm
01:17 1.6 °C 0.6 °C 1014.1 hPa Calm     93 % 0.0 mm
01:22 1.7 °C 0.7 °C 1014.1 hPa Calm     93 % 0.0 mm
01:27 1.8 °C 0.8 °C 1014.1 hPa Calm     93 % 0.0 mm
01:32 1.9 °C 0.9 °C 1014.1 hPa Calm     93 % 0.0 mm
01:37 2.0 °C 1.0 °C 1014.1 hPa Calm     93 % 0.0 mm
01:42 2.1 °C 1.1 °C 1014.1 hPa Calm     93 % 0.0 mm
01:47 2.2 °C 1.2 °C 1014.1 hPa Calm   1.6 km/h 93 % 0.0 mm
01:52 2.3 °C 1.3 °C 1014.1 hPa Calm   1.6 km/h 93 % 0.0 mm
01:57 2.4 °C 1.2 °C 1014.1 hPa Calm   1.6 km/h 92 % 0.0 mm
02:02 2.5 °C 1.3 °C 1014.1 hPa Calm   1.6 km/h 92 % 0.0 mm
02:07 2.6 °C 1.4 °C 1014.1 hPa Calm   1.6 km/h 92 % 0.0 mm
02:12 2.7 °C 1.5 °C 1014.1 hPa Calm   1.6 km/h 92 % 0.0 mm
02:17 2.7 °C 1.5 °C 1014.1 hPa Calm     92 % 0.0 mm
02:22 2.8 °C 1.6 °C 1014.1 hPa Calm     92 % 0.0 mm
02:32 2.9 °C 1.7 °C 1014.1 hPa Calm     92 % 0.0 mm
02:37 2.9 °C 1.7 °C 1014.1 hPa Calm     92 % 0.0 mm
02:42 2.9 °C 1.7 °C 1014.1 hPa Calm     92 % 0.0 mm
02:47 2.9 °C 1.7 °C 1014.1 hPa Calm     92 % 0.0 mm
02:52 2.9 °C 1.7 °C 1014.1 hPa Calm     92 % 0.0 mm
02:57 2.9 °C 1.7 °C 1014.4 hPa Calm     92 % 0.0 mm
03:07 3.1 °C 1.9 °C 1014.4 hPa Calm     92 % 0.0 mm
03:12 3.2 °C 2.0 °C 1014.4 hPa Calm     92 % 0.0 mm
03:17 3.3 °C 2.1 °C 1014.1 hPa Calm     92 % 0.0 mm
03:22 3.3 °C 2.1 °C 1014.1 hPa Calm     92 % 0.0 mm
03:32 3.4 °C 2.4 °C 1014.4 hPa Calm     93 % 0.0 mm
03:37 3.5 °C 2.5 °C 1014.4 hPa Calm     93 % 0.0 mm
03:42 3.4 °C 2.4 °C 1014.4 hPa Calm     93 % 0.0 mm
03:47 3.4 °C 2.4 °C 1014.4 hPa Calm     93 % 0.0 mm
03:52 3.4 °C 2.2 °C 1014.1 hPa Calm     92 % 0.0 mm
03:57 3.3 °C 2.1 °C 1014.1 hPa Calm     92 % 0.0 mm
04:02 3.3 °C 2.1 °C 1014.1 hPa Calm     92 % 0.0 mm
04:12 3.2 °C 2.2 °C 1014.1 hPa Calm     93 % 0.0 mm
04:17 3.1 °C 2.1 °C 1014.1 hPa Calm     93 % 0.0 mm
04:22 3.0 °C 2.0 °C 1014.1 hPa Calm     93 % 0.0 mm
04:27 3.0 °C 2.0 °C 1014.4 hPa Calm     93 % 0.0 mm
04:32 3.0 °C 2.1 °C 1014.1 hPa Calm     94 % 0.0 mm
04:37 3.1 °C 2.2 °C 1014.1 hPa Calm     94 % 0.0 mm
04:42 3.1 °C 2.2 °C 1014.4 hPa Calm     94 % 0.0 mm
04:47 3.1 °C 2.2 °C 1014.1 hPa Calm     94 % 0.0 mm
04:52 3.1 °C 2.2 °C 1014.4 hPa Calm     94 % 0.0 mm
04:57 3.1 °C 2.2 °C 1014.1 hPa Calm     94 % 0.0 mm
05:02 3.1 °C 2.2 °C 1014.1 hPa Calm     94 % 0.0 mm
05:07 3.1 °C 2.2 °C 1014.4 hPa Calm     94 % 0.0 mm
05:12 3.0 °C 2.1 °C 1014.4 hPa Calm     94 % 0.0 mm
05:17 3.0 °C 2.1 °C 1014.4 hPa Calm     94 % 0.0 mm
05:22 3.1 °C 2.4 °C 1014.4 hPa Calm     95 % 0.0 mm
05:32 3.2 °C 2.5 °C 1014.4 hPa Calm   1.6 km/h 95 % 0.0 mm
05:42 3.4 °C 2.5 °C 1014.4 hPa Calm   1.6 km/h 94 % 0.0 mm
05:52 3.5 °C 2.5 °C 1014.4 hPa Calm   1.6 km/h 93 % 0.0 mm
05:57 3.5 °C 2.5 °C 1014.4 hPa Calm   1.6 km/h 93 % 0.0 mm
06:02 3.6 °C 2.6 °C 1014.4 hPa Calm   1.6 km/h 93 % 0.0 mm
06:07 3.5 °C 2.5 °C 1014.4 hPa Calm     93 % 0.0 mm
06:12 3.3 °C 2.3 °C 1014.4 hPa Calm     93 % 0.0 mm
06:17 3.2 °C 2.2 °C 1014.4 hPa Calm     93 % 0.0 mm
06:22 3.0 °C 2.0 °C 1014.4 hPa Calm     93 % 0.0 mm
06:32 2.9 °C 1.9 °C 1014.4 hPa Calm     93 % 0.0 mm
06:42 3.0 °C 2.1 °C 1014.4 hPa Calm     94 % 0.0 mm
06:52 3.0 °C 2.1 °C 1014.8 hPa Calm     94 % 0.0 mm
06:57 3.0 °C 2.1 °C 1014.8 hPa Calm     94 % 0.0 mm
07:02 2.9 °C 2.0 °C 1014.8 hPa Calm     94 % 0.0 mm
07:07 2.8 °C 1.9 °C 1014.8 hPa Calm     94 % 0.0 mm
07:17 2.4 °C 1.5 °C 1015.1 hPa Calm     94 % 0.0 mm
07:22 2.2 °C 1.3 °C 1015.1 hPa Calm     94 % 0.0 mm
07:32 1.9 °C 1.0 °C 1015.1 hPa Calm     94 % 0.0 mm
07:37 2.1 °C 1.4 °C 1015.1 hPa Calm     95 % 0.0 mm
07:42 2.1 °C 1.4 °C 1015.5 hPa Calm     95 % 0.0 mm
07:47 2.2 °C 1.5 °C 1015.5 hPa Calm     95 % 0.0 mm
07:52 2.2 °C 1.5 °C 1015.5 hPa Calm     95 % 0.0 mm
07:57 2.3 °C 1.6 °C 1015.5 hPa Calm     95 % 0.0 mm
08:02 2.3 °C 1.6 °C 1015.5 hPa Calm     95 % 0.0 mm
08:07 2.5 °C 1.9 °C 1015.5 hPa Calm     96 % 0.0 mm
08:12 2.7 °C 2.1 °C 1015.5 hPa Calm     96 % 0.0 mm
08:17 2.9 °C 2.3 °C 1015.5 hPa Calm     96 % 0.0 mm
08:22 3.2 °C 2.6 °C 1015.5 hPa Calm     96 % 0.0 mm
08:27 3.5 °C 2.9 °C 1015.5 hPa Calm     96 % 0.0 mm
08:32 3.7 °C 3.0 °C 1015.5 hPa Calm   1.6 km/h 95 % 0.0 mm
08:37 3.8 °C 3.1 °C 1015.8 hPa Calm   1.6 km/h 95 % 0.0 mm
08:42 3.9 °C 3.0 °C 1015.8 hPa Calm   1.6 km/h 94 % 0.0 mm
08:52 4.4 °C 3.2 °C 1015.8 hPa Calm   3.2 km/h 92 % 0.0 mm
08:57 4.7 °C 3.4 °C 1015.8 hPa Calm   3.2 km/h 91 % 0.0 mm
09:02 4.9 °C 3.4 °C 1015.8 hPa Calm   1.6 km/h 90 % 0.3 mm
09:07 5.4 °C 3.6 °C 1015.8 hPa NE 4.8 km/h 4.8 km/h 88 % 0.3 mm
09:12 5.6 °C 3.4 °C 1015.8 hPa NE 1.6 km/h 6.4 km/h 86 % 0.3 mm
09:17 5.7 °C 3.5 °C 1015.8 hPa ENE 1.6 km/h 6.4 km/h 86 % 0.3 mm
09:22 5.8 °C 3.1 °C 1015.8 hPa NE 1.6 km/h 6.4 km/h 83 % 0.3 mm
09:27 5.9 °C 3.1 °C 1015.8 hPa NE 1.6 km/h 6.4 km/h 82 % 0.3 mm
09:32 6.5 °C 3.8 °C 1015.8 hPa Calm   6.4 km/h 83 % 0.3 mm
09:37 6.9 °C 3.5 °C 1015.8 hPa Calm   6.4 km/h 79 % 0.3 mm
09:42 7.4 °C 3.4 °C 1016.1 hPa Calm   3.2 km/h 76 % 0.3 mm
09:52 7.7 °C 3.9 °C 1016.1 hPa Calm   6.4 km/h 77 % 0.3 mm
09:57 8.4 °C 3.6 °C 1016.1 hPa NE 3.2 km/h 6.4 km/h 72 % 0.3 mm
10:02 8.9 °C 4.3 °C 1016.1 hPa NNE 3.2 km/h 6.4 km/h 73 % 0.0 mm
10:12 8.3 °C 3.4 °C 1016.1 hPa Calm   8.0 km/h 71 % 0.0 mm
10:17 8.5 °C 3.5 °C 1016.1 hPa Calm   8.0 km/h 71 % 0.0 mm
10:22 9.1 °C 3.3 °C 1016.1 hPa Calm   8.0 km/h 67 % 0.0 mm
10:27 9.0 °C 3.4 °C 1016.1 hPa ENE 3.2 km/h 6.4 km/h 68 % 0.0 mm
10:32 9.3 °C 4.1 °C 1016.1 hPa Calm   6.4 km/h 70 % 0.0 mm
10:37 9.2 °C 3.0 °C 1016.1 hPa Calm   6.4 km/h 65 % 0.0 mm
10:42 9.4 °C 3.4 °C 1016.1 hPa Calm   6.4 km/h 66 % 0.0 mm
10:47 9.4 °C 3.4 °C 1016.5 hPa Calm   8.0 km/h 66 % 0.0 mm
10:52 9.9 °C 3.0 °C 1016.1 hPa NE 1.6 km/h 8.0 km/h 62 % 0.0 mm
10:57 10.3 °C 3.3 °C 1016.1 hPa SW 1.6 km/h 3.2 km/h 62 % 0.0 mm
11:02 10.8 °C 4.5 °C 1016.1 hPa West 1.6 km/h 3.2 km/h 65 % 0.0 mm
11:07 10.7 °C 3.5 °C 1016.5 hPa ENE 1.6 km/h 4.8 km/h 61 % 0.0 mm
11:12 10.1 °C 3.4 °C 1016.1 hPa NE 3.2 km/h 4.8 km/h 63 % 0.0 mm
11:17 9.7 °C 3.2 °C 1016.5 hPa Calm   8.0 km/h 64 % 0.0 mm
11:22 9.4 °C 2.9 °C 1016.5 hPa NE 1.6 km/h 8.0 km/h 64 % 0.0 mm
11:27 9.8 °C 3.5 °C 1016.1 hPa Calm   6.4 km/h 65 % 0.0 mm
11:32 10.7 °C 5.0 °C 1016.5 hPa Calm   6.4 km/h 68 % 0.0 mm
11:37 10.4 °C 3.4 °C 1016.5 hPa ENE 4.8 km/h 9.7 km/h 62 % 0.0 mm
11:42 10.1 °C 3.1 °C 1016.5 hPa Calm   9.7 km/h 62 % 0.0 mm
11:47 10.1 °C 2.7 °C 1016.5 hPa Calm   9.7 km/h 60 % 0.0 mm
11:52 10.7 °C 3.2 °C 1016.5 hPa SW 3.2 km/h 9.7 km/h 60 % 0.0 mm
11:57 11.1 °C 2.9 °C 1016.5 hPa SW 1.6 km/h 11.3 km/h 57 % 0.0 mm
12:02 10.9 °C 2.7 °C 1016.5 hPa ENE 3.2 km/h 11.3 km/h 57 % 0.0 mm
12:12 10.5 °C 2.1 °C 1016.5 hPa Calm   11.3 km/h 56 % 0.0 mm
12:17 10.0 °C 1.6 °C 1016.5 hPa Calm   11.3 km/h 56 % 0.0 mm
12:22 9.6 °C 2.2 °C 1016.5 hPa NE 6.4 km/h 11.3 km/h 60 % 0.0 mm
12:32 8.9 °C 2.0 °C 1016.5 hPa Calm   9.7 km/h 62 % 0.0 mm
12:37 8.8 °C 1.2 °C 1016.5 hPa Calm   9.7 km/h 59 % 0.0 mm
12:42 8.8 °C 1.7 °C 1016.5 hPa Calm   6.4 km/h 61 % 0.0 mm
12:52 9.5 °C 2.4 °C 1016.5 hPa Calm   6.4 km/h 61 % 0.0 mm
12:57 9.4 °C 2.0 °C 1016.5 hPa Calm   6.4 km/h 60 % 0.0 mm
13:02 9.6 °C 1.7 °C 1016.5 hPa Calm   6.4 km/h 58 % 0.0 mm
13:07 9.8 °C 1.9 °C 1016.5 hPa NE 1.6 km/h 6.4 km/h 58 % 0.0 mm
13:12 9.9 °C 2.0 °C 1016.5 hPa Calm   6.4 km/h 58 % 0.0 mm
13:17 9.9 °C 2.3 °C 1016.5 hPa ENE 3.2 km/h 9.7 km/h 59 % 0.0 mm
13:22 9.8 °C 1.9 °C 1016.5 hPa Calm   9.7 km/h 58 % 0.0 mm
13:32 10.2 °C 1.6 °C 1016.5 hPa Calm   8.0 km/h 55 % 0.0 mm
13:37 10.3 °C 1.9 °C 1016.5 hPa Calm   6.4 km/h 56 % 0.0 mm
13:42 10.5 °C 1.8 °C 1016.5 hPa Calm   6.4 km/h 55 % 0.0 mm
13:52 10.5 °C 1.8 °C 1016.5 hPa ENE 3.2 km/h 4.8 km/h 55 % 0.0 mm
13:57 10.1 °C 1.7 °C 1016.5 hPa Calm   9.7 km/h 56 % 0.0 mm
14:02 10.1 °C 2.0 °C 1016.5 hPa NNE 1.6 km/h 9.7 km/h 57 % 0.0 mm
14:07 10.2 °C 2.8 °C 1016.5 hPa Calm   9.7 km/h 60 % 0.0 mm
14:12 10.4 °C 1.7 °C 1016.5 hPa Calm   9.7 km/h 55 % 0.0 mm
14:17 10.6 °C 1.7 °C 1016.5 hPa Calm   8.0 km/h 54 % 0.0 mm
14:22 10.6 °C 1.4 °C 1016.5 hPa Calm   8.0 km/h 53 % 0.0 mm
14:32 10.9 °C 2.2 °C 1016.5 hPa NNE 3.2 km/h 4.8 km/h 55 % 0.0 mm
14:37 10.9 °C 1.7 °C 1016.5 hPa Calm   6.4 km/h 53 % 0.0 mm
14:42 11.1 °C 2.4 °C 1016.5 hPa Calm   6.4 km/h 55 % 0.0 mm
14:47 11.0 °C 2.8 °C 1016.5 hPa NE 4.8 km/h 6.4 km/h 57 % 0.0 mm
14:52 11.1 °C 3.4 °C 1016.5 hPa Calm   6.4 km/h 59 % 0.0 mm
14:57 11.3 °C 3.1 °C 1016.5 hPa Calm   8.0 km/h 57 % 0.0 mm
15:02 11.6 °C 2.1 °C 1016.5 hPa West 1.6 km/h 8.0 km/h 52 % 0.0 mm
15:07 11.9 °C 2.9 °C 1016.5 hPa NE 3.2 km/h 4.8 km/h 54 % 0.0 mm
15:12 11.6 °C 2.3 °C 1016.5 hPa Calm   4.8 km/h 53 % 0.0 mm
15:17 11.7 °C 3.2 °C 1016.5 hPa NE 1.6 km/h 6.4 km/h 56 % 0.0 mm
15:22 12.1 °C 3.1 °C 1016.5 hPa Calm   6.4 km/h 54 % 0.0 mm
15:27 12.0 °C 1.9 °C 1016.5 hPa Calm   4.8 km/h 50 % 0.0 mm
15:32 11.7 °C 1.3 °C 1016.5 hPa Calm   4.8 km/h 49 % 0.0 mm
15:37 11.3 °C 1.8 °C 1016.5 hPa Calm   3.2 km/h 52 % 0.0 mm
15:42 11.4 °C 1.9 °C 1016.5 hPa Calm   3.2 km/h 52 % 0.0 mm
15:47 11.6 °C 2.6 °C 1016.5 hPa SW 3.2 km/h 3.2 km/h 54 % 0.0 mm
15:52 11.5 °C 2.5 °C 1016.5 hPa Calm   3.2 km/h 54 % 0.0 mm
15:57 11.5 °C 2.2 °C 1016.5 hPa Calm   4.8 km/h 53 % 0.0 mm
16:07 11.7 °C 3.0 °C 1016.5 hPa Calm   6.4 km/h 55 % 0.0 mm
16:12 11.7 °C 2.2 °C 1016.5 hPa Calm   6.4 km/h 52 % 0.0 mm
16:17 11.6 °C 2.3 °C 1016.1 hPa SSW 3.2 km/h 9.7 km/h 53 % 0.0 mm
16:22 11.7 °C 3.0 °C 1016.5 hPa Calm   9.7 km/h 55 % 0.0 mm
16:27 11.7 °C 2.2 °C 1016.1 hPa SSW 1.6 km/h 3.2 km/h 52 % 0.0 mm
16:37 11.8 °C 2.8 °C 1016.1 hPa Calm   3.2 km/h 54 % 0.0 mm
16:42 11.8 °C 2.3 °C 1016.1 hPa Calm   3.2 km/h 52 % 0.0 mm
16:47 11.9 °C 2.9 °C 1016.1 hPa WSW 1.6 km/h 3.2 km/h 54 % 0.0 mm
16:52 12.0 °C 2.7 °C 1016.1 hPa Calm   3.2 km/h 53 % 0.0 mm
16:57 12.4 °C 2.3 °C 1016.1 hPa WSW 1.6 km/h 3.2 km/h 50 % 0.0 mm
17:02 12.9 °C 2.2 °C 1016.1 hPa Calm   3.2 km/h 48 % 0.0 mm
17:12 12.9 °C 1.9 °C 1016.1 hPa South 3.2 km/h 6.4 km/h 47 % 0.0 mm
17:17 12.7 °C 1.4 °C 1016.1 hPa WSW 1.6 km/h 6.4 km/h 46 % 0.0 mm
17:22 12.9 °C 1.9 °C 1016.1 hPa Calm   6.4 km/h 47 % 0.0 mm
17:27 13.4 °C 2.6 °C 1016.1 hPa WSW 1.6 km/h 6.4 km/h 48 % 0.0 mm
17:32 13.8 °C 2.1 °C 1016.1 hPa Calm   6.4 km/h 45 % 0.0 mm
17:37 13.8 °C 1.4 °C 1016.1 hPa SW 3.2 km/h 6.4 km/h 43 % 0.0 mm
17:42 13.7 °C 2.3 °C 1016.1 hPa WSW 6.4 km/h 6.4 km/h 46 % 0.0 mm
17:47 13.8 °C 2.1 °C 1016.1 hPa SE 1.6 km/h 6.4 km/h 45 % 0.0 mm
17:52 14.2 °C 2.1 °C 1016.1 hPa WSW 3.2 km/h 6.4 km/h 44 % 0.0 mm
17:57 14.1 °C 2.0 °C 1016.1 hPa SW 1.6 km/h 6.4 km/h 44 % 0.0 mm
18:02 13.2 °C 1.5 °C 1016.1 hPa WSW 1.6 km/h 6.4 km/h 45 % 0.0 mm
18:12 12.3 °C 1.6 °C 1016.5 hPa Calm   6.4 km/h 48 % 0.0 mm
18:17 12.1 °C 1.7 °C 1016.1 hPa Calm   6.4 km/h 49 % 0.0 mm
18:22 11.8 °C 1.1 °C 1016.5 hPa Calm     48 % 0.0 mm
18:27 11.9 °C 1.5 °C 1016.1 hPa Calm     49 % 0.0 mm
18:32 11.6 °C 2.9 °C 1016.1 hPa NE 1.6 km/h 4.8 km/h 55 % 0.0 mm
18:42 10.9 °C 2.5 °C 1016.1 hPa Calm   4.8 km/h 56 % 0.0 mm
18:47 10.7 °C 2.5 °C 1016.5 hPa Calm   4.8 km/h 57 % 0.0 mm
18:57 10.3 °C 2.2 °C 1016.5 hPa NNE 1.6 km/h 3.2 km/h 57 % 0.0 mm
19:02 10.2 °C 1.6 °C 1016.5 hPa NE 1.6 km/h 3.2 km/h 55 % 0.0 mm
19:07 10.1 °C 2.4 °C 1016.5 hPa Calm   6.4 km/h 59 % 0.0 mm
19:12 10.0 °C 2.1 °C 1016.5 hPa ENE 1.6 km/h 6.4 km/h 58 % 0.0 mm
19:17 9.9 °C 2.5 °C 1016.5 hPa Calm   3.2 km/h 60 % 0.0 mm
19:22 9.9 °C 1.5 °C 1016.5 hPa NE 1.6 km/h 3.2 km/h 56 % 0.0 mm
19:32 10.1 °C 2.4 °C 1016.5 hPa Calm   3.2 km/h 59 % 0.0 mm
19:37 10.1 °C 2.2 °C 1016.5 hPa Calm   1.6 km/h 58 % 0.0 mm
19:47 10.1 °C 2.4 °C 1016.5 hPa Calm     59 % 0.0 mm
19:52 10.1 °C 2.2 °C 1016.5 hPa Calm     58 % 0.0 mm
19:57 10.0 °C 3.1 °C 1016.5 hPa Calm     62 % 0.0 mm
20:02 9.9 °C 3.6 °C 1016.5 hPa Calm     65 % 0.0 mm
20:07 9.9 °C 3.8 °C 1016.5 hPa Calm   1.6 km/h 66 % 0.0 mm
20:17 9.6 °C 3.6 °C 1016.5 hPa Calm     66 % 0.0 mm
20:22 9.6 °C 4.6 °C 1016.5 hPa Calm     71 % 0.0 mm
20:27 9.4 °C 5.0 °C 1016.5 hPa Calm     74 % 0.0 mm
20:32 9.1 °C 4.5 °C 1016.5 hPa Calm     73 % 0.0 mm
20:37 8.9 °C 4.5 °C 1016.5 hPa Calm     74 % 0.0 mm
20:42 8.8 °C 4.8 °C 1016.5 hPa Calm     76 % 0.0 mm
20:52 8.7 °C 5.1 °C 1016.5 hPa Calm     78 % 0.0 mm
20:57 8.5 °C 4.5 °C 1016.5 hPa Calm     76 % 0.0 mm
21:02 8.4 °C 5.0 °C 1016.8 hPa Calm     79 % 0.0 mm
21:07 8.2 °C 4.6 °C 1016.8 hPa Calm     78 % 0.0 mm
21:12 8.1 °C 4.9 °C 1016.8 hPa Calm     80 % 0.0 mm
21:22 7.8 °C 4.4 °C 1016.8 hPa Calm     79 % 0.0 mm
21:27 7.7 °C 4.5 °C 1016.8 hPa Calm     80 % 0.0 mm
21:37 7.5 °C 4.6 °C 1016.8 hPa Calm     82 % 0.0 mm
21:42 7.4 °C 4.4 °C 1017.2 hPa Calm     81 % 0.0 mm
21:52 7.2 °C 4.2 °C 1017.2 hPa Calm     81 % 0.0 mm
21:57 7.2 °C 4.3 °C 1017.2 hPa Calm     82 % 0.0 mm
22:02 7.1 °C 4.2 °C 1017.2 hPa Calm     82 % 0.0 mm
22:07 7.1 °C 4.2 °C 1017.2 hPa Calm     82 % 0.0 mm
22:12 7.1 °C 4.4 °C 1017.2 hPa Calm     83 % 0.0 mm
22:17 6.9 °C 4.2 °C 1017.2 hPa Calm     83 % 0.0 mm
22:22 6.9 °C 4.4 °C 1017.2 hPa Calm     84 % 0.0 mm
22:27 6.8 °C 4.3 °C 1017.2 hPa Calm     84 % 0.0 mm
22:32 6.7 °C 4.2 °C 1017.2 hPa Calm     84 % 0.0 mm
22:37 6.7 °C 4.2 °C 1017.2 hPa Calm     84 % 0.0 mm
22:42 6.6 °C 4.1 °C 1017.2 hPa Calm     84 % 0.0 mm
22:47 6.4 °C 4.1 °C 1017.5 hPa Calm     85 % 0.0 mm
22:52 6.4 °C 4.1 °C 1017.2 hPa Calm     85 % 0.0 mm
22:57 6.3 °C 4.1 °C 1017.5 hPa Calm     86 % 0.0 mm
23:02 6.2 °C 4.0 °C 1017.2 hPa Calm     86 % 0.0 mm
23:07 6.2 °C 4.2 °C 1017.2 hPa Calm     87 % 0.0 mm
23:12 6.2 °C 4.4 °C 1017.2 hPa Calm     88 % 0.0 mm
23:17 6.2 °C 4.4 °C 1017.2 hPa Calm     88 % 0.0 mm
23:22 6.1 °C 4.3 °C 1017.2 hPa Calm     88 % 0.0 mm
23:27 6.0 °C 4.2 °C 1017.2 hPa Calm     88 % 0.0 mm
23:32 5.8 °C 4.0 °C 1017.2 hPa Calm     88 % 0.0 mm
23:37 5.7 °C 3.9 °C 1017.2 hPa Calm     88 % 0.0 mm
23:42 5.5 °C 3.7 °C 1017.2 hPa Calm     88 % 0.0 mm
23:47 5.4 °C 3.6 °C 1017.2 hPa Calm     88 % 0.0 mm
23:52 5.4 °C 3.7 °C 1017.2 hPa Calm     89 % 0.0 mm
23:57 5.4 °C 3.7 °C 1017.2 hPa Calm     89 % 0.0 mm
Meteo18
Compliments of Weather Underground - 4 mb

Script developed by  Jim McMurry - jmcmurry@mwt.net Adapted for the template by  Wim van der Kuil - Leuven-Template.eu

You find our weather info also at:

European Weather Network

Weather Underground

Equipment we use:

Weather-station
Davis Vue

Weather-program
Meteohub

Weather-server
Raspberry PI 2 B+

Provider
1 and 1

Davis Vue

Meteohub

Raspberry PI 2 B+

1 and 1